Pagrindinis puslapis
METAR-TAF:

METAR-TAF

Oro uostai :

Beirutas, Libanas

platuma: 33-49N, ilguma: 035-29E, Aukštis: 29 m

Dabartinis oras

Ataskaita buvo paskelbta 26 minutes, ne 05:00 UTC
Vėjas 3 kt iš Pietų/Pietvakarių, svyruoja nuo Pietų ir Vakarų
Temperatūra 14°C
Drėgmė 72%
Slėgis 1020 hPa
Matomumas 10 km arba daugiau
Su prošvaistėmis ne aukštis 4000 ft

METAR: OLBA 230500Z 21003KT 180V270 9999 BKN040 14/09 Q1020 NOSIG

Laikas: 07:26 (05:26 UTC)

Prognozė

Ataskaita buvo paskelbta 7 valandos ir 26 minutes, ne 22:00 UTC
Prognozė galioja nuo 23 metu 00 UTC su 24 metu 06 UTC
Vėjas 2 kt nuo kintamojo kryptimis
Matomumas: 8000 m
Su prošvaistėmis ne aukštis 2600 ft
Laikinai
nuo 23 metu 00 UTC su 24 metu 06 UTC
lietus
Tapsmas
nuo 23 metu 06 UTC su 23 metu 09 UTC
Vėjas 12 kt iš Pietvakarių
Išsisklaidę debesys ne aukštis 2600 ft
Tapsmas
nuo 23 metu 18 UTC su 23 metu 20 UTC
Vėjas 8 kt iš Pietų/Pietryčių
Su prošvaistėmis ne aukštis 2600 ft

TAF: OLBA 222200Z 2300/2406 VRB02KT 8000 BKN026 TEMPO 2300/2406 -RA BECMG 2306/2309 23012KT SCT026 BECMG 2318/2320 16008KT BKN026

Orai ataskaitas ir orų prognozės (METAR, TAF).

turimą stotys yra geltonos ir raudonos taškus žemėlapyje.

Perkelti pele per norėdami pamatyti stoties vardą.

Tada spustelėkite, norėdami matyti oro stebėjimo ir prognozės.

Norėdami pakeisti žemėlapį: spustelėkite ant žalios mygtukų su juodo kryžiaus žemyn,; žalią mygtuką su brūkšneliu, jei norite nutolinti; arba žalių rodyklių gretimoms žemėlapius.


METAR-TAF: